Time;durP1;ratioP1;P1;durP2;ratioP2;P2;SDS_P1;SDS_P2;PMS_P1;PMS_P2;Temp;Humidity;BMP_temperature;BMP_pressure;BME280_temperature;BME280_humidity;BME280_pressure;Samples;Min_cycle;Max_cycle;Signal;HPM_P1;HPM_P2
2023/01/23 00:02:06;;;;;;;9.50;4.70;;;3.10;99.90;;;;;;4861640;29;20375;-89
2023/01/23 00:04:32;;;;;;;10.68;4.68;;;3.10;99.90;;;;;;4827193;29;20050;-89
2023/01/23 00:07:10;;;;;;;9.80;4.53;;;3.10;99.90;;;;;;4842882;29;20049;-89
2023/01/23 00:09:42;;;;;;;10.52;5.05;;;3.10;99.90;;;;;;4844723;29;20052;-90
2023/01/23 00:12:07;;;;;;;10.18;4.75;;;3.10;99.90;;;;;;4860484;29;20045;-89
2023/01/23 00:14:42;;;;;;;14.00;5.20;;;3.10;99.90;;;;;;4845072;29;20042;-89
2023/01/23 00:17:08;;;;;;;10.07;5.63;;;3.10;99.90;;;;;;4861017;29;20049;-89
2023/01/23 00:19:33;;;;;;;11.40;4.88;;;3.10;99.90;;;;;;4860834;29;20052;-89
2023/01/23 00:21:59;;;;;;;7.65;4.60;;;3.10;99.90;;;;;;4861320;29;20443;-89
2023/01/23 00:24:26;;;;;;;11.48;4.90;;;3.10;99.90;;;;;;4861114;29;20054;-89
2023/01/23 00:26:51;;;;;;;9.35;4.70;;;3.10;99.90;;;;;;4860355;29;20152;-89
2023/01/23 00:29:17;;;;;;;8.90;4.97;;;3.10;99.90;;;;;;4844809;29;20475;-90
2023/01/23 00:31:43;;;;;;;13.63;5.43;;;3.10;99.90;;;;;;4861180;29;20048;-89
2023/01/23 00:34:13;;;;;;;11.30;4.90;;;3.10;99.90;;;;;;4843853;29;20053;-90
2023/01/23 00:36:41;;;;;;;8.60;4.95;;;3.10;99.90;;;;;;4844568;29;20045;-89
2023/01/23 00:39:13;;;;;;;9.60;5.10;;;3.10;99.90;;;;;;4844404;29;20050;-89
2023/01/23 00:41:39;;;;;;;8.27;4.80;;;3.10;99.90;;;;;;4843948;29;20097;-89
2023/01/23 00:44:05;;;;;;;10.40;5.50;;;3.10;99.90;;;;;;4844344;29;20568;-89
2023/01/23 00:46:31;;;;;;;12.50;5.88;;;3.10;99.90;;;;;;4844549;29;20060;-89
2023/01/23 00:48:56;;;;;;;9.02;4.63;;;3.10;99.90;;;;;;4843933;29;20411;-89
2023/01/23 00:51:22;;;;;;;13.15;6.50;;;3.10;99.90;;;;;;4843598;29;20376;-89
2023/01/23 00:53:48;;;;;;;11.82;5.72;;;3.10;99.90;;;;;;4860602;29;20061;-89
2023/01/23 00:56:14;;;;;;;9.05;5.15;;;3.10;99.90;;;;;;4842900;29;20064;-90
2023/01/23 00:58:40;;;;;;;12.05;6.00;;;3.10;99.90;;;;;;4860658;29;20108;-89
2023/01/23 01:01:07;;;;;;;12.20;5.18;;;3.10;99.90;;;;;;4860837;29;20045;-89
2023/01/23 01:03:32;;;;;;;9.57;4.55;;;3.10;99.90;;;;;;4859779;29;20052;-89
2023/01/23 01:05:58;;;;;;;9.20;4.70;;;3.10;99.90;;;;;;4860185;29;20041;-89
2023/01/23 01:08:23;;;;;;;9.82;5.15;;;3.10;99.90;;;;;;4843055;29;20072;-89
2023/01/23 01:10:49;;;;;;;7.68;4.90;;;3.10;99.90;;;;;;4843818;29;20058;-90
2023/01/23 01:13:20;;;;;;;11.27;4.57;;;3.10;99.90;;;;;;4843989;29;20049;-89
2023/01/23 01:15:50;;;;;;;11.15;5.53;;;3.10;99.90;;;;;;4859277;29;20041;-89
2023/01/23 01:18:17;;;;;;;9.35;5.18;;;3.10;99.90;;;;;;4844090;29;20614;-89
2023/01/23 01:20:43;;;;;;;13.15;5.72;;;3.10;99.90;;;;;;4844133;29;20060;-89
2023/01/23 01:23:09;;;;;;;13.18;5.50;;;3.10;99.90;;;;;;4843184;29;20073;-89
2023/01/23 01:25:36;;;;;;;10.02;5.35;;;3.10;99.90;;;;;;4860156;29;20052;-89
2023/01/23 01:28:02;;;;;;;10.23;5.38;;;3.10;99.90;;;;;;4844037;29;20058;-89
2023/01/23 01:30:29;;;;;;;10.60;5.47;;;3.10;99.90;;;;;;4842815;29;20060;-89
2023/01/23 01:32:55;;;;;;;9.82;5.72;;;3.10;99.90;;;;;;4860350;29;20041;-89
2023/01/23 01:35:24;;;;;;;10.00;5.30;;;3.10;99.90;;;;;;4859679;29;20097;-89
2023/01/23 01:37:50;;;;;;;8.50;5.05;;;3.10;99.90;;;;;;4859469;29;20049;-89
2023/01/23 01:40:23;;;;;;;15.20;6.43;;;3.10;99.90;;;;;;4843639;29;20132;-89
2023/01/23 01:42:51;;;;;;;11.00;6.00;;;3.10;99.90;;;;;;4860008;29;20520;-89
2023/01/23 01:46:01;;;;;;;11.70;6.13;;;3.10;99.90;;;;;;4842573;29;20057;-89
2023/01/23 01:48:33;;;;;;;11.38;5.00;;;3.10;99.90;;;;;;4860128;29;20128;-89
2023/01/23 01:51:01;;;;;;;9.27;5.30;;;3.10;99.90;;;;;;4842536;29;20073;-89
2023/01/23 01:53:30;;;;;;;12.55;5.88;;;3.10;99.90;;;;;;4843426;29;20061;-89
2023/01/23 01:55:56;;;;;;;8.95;5.68;;;3.10;99.90;;;;;;4843089;29;20054;-89
2023/01/23 01:58:22;;;;;;;11.90;5.93;;;3.10;99.90;;;;;;4859168;29;20124;-89
2023/01/23 02:00:48;;;;;;;10.20;5.68;;;3.10;99.90;;;;;;4843853;29;20053;-89
2023/01/23 02:03:15;;;;;;;11.77;6.40;;;3.10;99.90;;;;;;4845650;29;20520;-89
2023/01/23 02:05:47;;;;;;;10.65;5.90;;;3.20;99.90;;;;;;4846085;29;20482;-89
2023/01/23 02:08:19;;;;;;;9.93;5.78;;;3.10;99.90;;;;;;4840535;29;20042;-88
2023/01/23 02:10:45;;;;;;;10.70;5.32;;;3.10;99.90;;;;;;4847097;29;20045;-89
2023/01/23 02:13:22;;;;;;;9.20;6.00;;;3.10;99.90;;;;;;4846096;29;20520;-89
2023/01/23 02:15:48;;;;;;;10.02;5.50;;;3.20;99.90;;;;;;4863198;29;20494;-88
2023/01/23 02:18:14;;;;;;;11.32;5.65;;;3.20;99.90;;;;;;4846331;29;20608;-88
2023/01/23 02:20:43;;;;;;;10.20;5.82;;;3.20;99.90;;;;;;4863062;29;20037;-89
2023/01/23 02:23:49;;;;;;;15.18;7.10;;;3.20;99.90;;;;;;4846719;29;20057;-89
2023/01/23 02:26:19;;;;;;;10.73;6.07;;;3.10;99.90;;;;;;4861921;23;20041;-89
2023/01/23 02:28:54;;;;;;;11.82;5.82;;;3.20;99.90;;;;;;4896442;29;20048;-89
2023/01/23 02:31:20;;;;;;;9.93;6.10;;;3.20;99.90;;;;;;4888196;29;20052;-88
2023/01/23 02:33:52;;;;;;;13.13;5.78;;;3.20;99.90;;;;;;4874863;29;20060;-88
2023/01/23 02:36:20;;;;;;;9.38;5.43;;;3.20;99.90;;;;;;4867069;29;20397;-88
2023/01/23 02:39:12;;;;;;;12.10;6.20;;;3.20;99.90;;;;;;4896426;29;20084;-88
2023/01/23 02:41:40;;;;;;;10.18;6.18;;;3.20;99.90;;;;;;4877509;29;20116;-89
2023/01/23 02:44:25;;;;;;;13.13;7.15;;;3.20;99.90;;;;;;4869364;29;20172;-88
2023/01/23 02:46:55;;;;;;;15.63;6.15;;;3.10;99.90;;;;;;4881314;29;20085;-88
2023/01/23 02:49:21;;;;;;;13.98;6.43;;;3.20;99.90;;;;;;4868842;29;20041;-89
2023/01/23 02:51:48;;;;;;;12.95;6.85;;;3.20;99.90;;;;;;4881695;29;20041;-89
2023/01/23 02:54:14;;;;;;;10.20;6.25;;;3.10;99.90;;;;;;4877003;29;20516;-89
2023/01/23 02:56:42;;;;;;;9.40;5.45;;;3.20;99.90;;;;;;4865775;29;20045;-89
2023/01/23 03:01:56;;;;;;;12.27;5.85;;;3.20;99.90;;;;;;4869560;29;20049;-89
2023/01/23 03:04:22;;;;;;;11.60;6.25;;;3.20;99.90;;;;;;4889714;29;20434;-89
2023/01/23 03:06:47;;;;;;;13.93;6.65;;;3.20;99.90;;;;;;4887794;29;20037;-89
2023/01/23 03:09:15;;;;;;;12.32;6.50;;;3.10;99.90;;;;;;4873176;29;20496;-89
2023/01/23 03:11:46;;;;;;;11.82;6.65;;;3.20;99.90;;;;;;4879607;29;20059;-89
2023/01/23 03:14:24;;;;;;;10.85;6.18;;;3.20;99.90;;;;;;4869546;29;20128;-89
2023/01/23 03:16:52;;;;;;;10.57;6.20;;;3.20;99.90;;;;;;4882228;29;20058;-89
2023/01/23 03:19:24;;;;;;;12.82;6.78;;;3.10;99.90;;;;;;4879286;29;20056;-90
2023/01/23 03:21:53;;;;;;;12.63;6.55;;;3.20;99.90;;;;;;4880583;29;20056;-89
2023/01/23 03:24:20;;;;;;;13.35;6.85;;;3.20;99.90;;;;;;4870004;29;20056;-89
2023/01/23 03:26:47;;;;;;;12.98;7.50;;;3.20;99.90;;;;;;4882959;29;20065;-90
2023/01/23 03:32:11;;;;;;;9.13;6.15;;;3.20;99.90;;;;;;4864022;29;20119;-89
2023/01/23 03:34:38;;;;;;;12.30;5.90;;;3.20;99.90;;;;;;4867210;29;20057;-90
2023/01/23 03:37:04;;;;;;;12.25;6.70;;;3.20;99.90;;;;;;4875771;29;20037;-90
2023/01/23 03:42:14;;;;;;;12.13;6.85;;;3.20;99.90;;;;;;4888542;29;20048;-89
2023/01/23 03:44:40;;;;;;;14.65;7.57;;;3.20;99.90;;;;;;4875466;29;20044;-89
2023/01/23 03:47:05;;;;;;;11.82;6.75;;;3.20;99.90;;;;;;4892939;29;20709;-89
2023/01/23 03:49:31;;;;;;;9.73;6.05;;;3.20;99.90;;;;;;4881391;29;20049;-89
2023/01/23 03:52:03;;;;;;;13.55;6.90;;;3.20;99.90;;;;;;4881706;29;20049;-89
2023/01/23 03:54:28;;;;;;;11.15;7.18;;;3.20;99.90;;;;;;4878262;29;20139;-90
2023/01/23 03:56:54;;;;;;;12.73;6.35;;;3.20;99.90;;;;;;4867167;29;20120;-90
2023/01/23 03:59:23;;;;;;;12.95;6.20;;;3.20;99.90;;;;;;4876682;29;20045;-89
2023/01/23 04:01:48;;;;;;;12.60;7.57;;;3.20;99.90;;;;;;4881059;29;20131;-90
2023/01/23 04:04:14;;;;;;;15.55;6.80;;;3.20;99.90;;;;;;4863695;29;20135;-89
2023/01/23 04:06:40;;;;;;;11.30;6.70;;;3.20;99.90;;;;;;4882271;29;20048;-90
2023/01/23 04:09:12;;;;;;;14.75;7.45;;;3.20;99.90;;;;;;4886246;29;20045;-90
2023/01/23 04:11:43;;;;;;;16.00;8.48;;;3.20;99.90;;;;;;4879080;29;20437;-90
2023/01/23 04:14:09;;;;;;;12.38;7.55;;;3.20;99.90;;;;;;4887032;29;20044;-89
2023/01/23 04:16:37;;;;;;;11.32;6.60;;;3.20;99.90;;;;;;4863952;29;20049;-90
2023/01/23 04:19:09;;;;;;;13.10;7.55;;;3.20;99.90;;;;;;4880071;29;20041;-90
2023/01/23 04:21:35;;;;;;;12.80;7.32;;;3.20;99.90;;;;;;4879621;29;20064;-90
2023/01/23 04:24:00;;;;;;;10.35;6.88;;;3.20;99.90;;;;;;4897797;29;20437;-89
2023/01/23 04:26:34;;;;;;;15.98;8.23;;;3.20;99.90;;;;;;4873213;29;20061;-89
2023/01/23 04:29:00;;;;;;;13.57;7.20;;;3.30;99.90;;;;;;4864539;29;20508;-89
2023/01/23 04:31:29;;;;;;;12.40;7.07;;;3.30;99.90;;;;;;4864151;29;20081;-89
2023/01/23 04:33:55;;;;;;;12.85;7.25;;;3.20;99.90;;;;;;4876871;29;20113;-89
2023/01/23 04:36:29;;;;;;;11.70;6.72;;;3.20;99.90;;;;;;4879498;29;20049;-89
2023/01/23 04:38:57;;;;;;;18.30;9.20;;;3.20;99.90;;;;;;4878767;29;20053;-88
2023/01/23 04:41:31;;;;;;;13.43;8.60;;;3.20;99.90;;;;;;4890157;29;20096;-89
2023/01/23 04:44:18;;;;;;;17.25;7.55;;;3.20;99.90;;;;;;4865352;29;20053;-89
2023/01/23 04:46:42;;;;;;;17.77;8.85;;;3.30;99.90;;;;;;4878675;29;20053;-89
2023/01/23 04:49:08;;;;;;;12.70;7.55;;;3.20;99.90;;;;;;4865596;29;20084;-91
2023/01/23 04:51:35;;;;;;;14.68;7.05;;;3.20;99.90;;;;;;4879461;29;20183;-90
2023/01/23 04:54:04;;;;;;;17.17;8.95;;;3.30;99.90;;;;;;4879571;29;20125;-90
2023/01/23 04:56:36;;;;;;;11.82;7.30;;;3.20;99.90;;;;;;4863198;29;20087;-89
2023/01/23 04:59:07;;;;;;;12.23;7.72;;;3.20;99.90;;;;;;4884395;29;20044;-90
2023/01/23 05:01:36;;;;;;;11.18;7.38;;;3.30;99.90;;;;;;4869913;29;20048;-90
2023/01/23 05:04:05;;;;;;;14.48;8.10;;;3.20;99.90;;;;;;4879974;29;20048;-90
2023/01/23 05:06:33;;;;;;;11.43;7.68;;;3.20;99.90;;;;;;4864007;29;20049;-91
2023/01/23 05:09:05;;;;;;;12.32;7.85;;;3.30;99.90;;;;;;4878917;29;20117;-90
2023/01/23 05:11:32;;;;;;;12.60;7.43;;;3.30;99.90;;;;;;4862345;29;20049;-90
2023/01/23 05:13:58;;;;;;;12.23;7.90;;;3.30;99.90;;;;;;4879570;29;20037;-90
2023/01/23 05:16:36;;;;;;;11.50;7.90;;;3.20;99.90;;;;;;4866101;29;20494;-89
2023/01/23 05:19:01;;;;;;;12.40;7.80;;;3.20;99.90;;;;;;4862842;29;20049;-88
2023/01/23 05:21:27;;;;;;;14.40;7.80;;;3.30;99.90;;;;;;4878464;29;20045;-88
2023/01/23 05:23:53;;;;;;;15.18;7.97;;;3.20;99.90;;;;;;4862536;29;20529;-90
2023/01/23 05:26:18;;;;;;;13.93;7.95;;;3.20;99.90;;;;;;4868823;29;20545;-89
2023/01/23 05:28:44;;;;;;;12.77;7.90;;;3.20;99.90;;;;;;4895891;29;20833;-89
2023/01/23 05:31:13;;;;;;;10.48;7.60;;;3.20;99.90;;;;;;4872454;29;20041;-89
2023/01/23 05:33:42;;;;;;;14.13;8.30;;;3.30;99.90;;;;;;4883525;29;20113;-89
2023/01/23 05:36:11;;;;;;;14.88;9.10;;;3.20;99.90;;;;;;4878045;29;20561;-89
2023/01/23 05:38:45;;;;;;;16.63;9.48;;;3.30;99.90;;;;;;4878091;29;20053;-89
2023/01/23 05:41:11;;;;;;;12.82;7.95;;;3.20;99.90;;;;;;4880888;29;20037;-90
2023/01/23 05:43:48;;;;;;;14.55;8.20;;;3.20;99.90;;;;;;4885204;29;20099;-89
2023/01/23 05:46:14;;;;;;;14.43;8.93;;;3.30;99.90;;;;;;4916678;29;20044;-88
2023/01/23 05:48:40;;;;;;;13.38;8.27;;;3.20;99.90;;;;;;4889918;29;20051;-90
2023/01/23 05:51:06;;;;;;;13.43;8.35;;;3.20;99.90;;;;;;4869475;29;20092;-89
2023/01/23 05:53:38;;;;;;;12.18;8.18;;;3.20;99.90;;;;;;4897862;29;20485;-89
2023/01/23 05:56:07;;;;;;;14.00;8.85;;;3.20;99.90;;;;;;4887820;29;20048;-89
2023/01/23 05:58:33;;;;;;;14.13;8.07;;;3.20;99.90;;;;;;4898092;29;20496;-89
2023/01/23 06:01:02;;;;;;;15.57;9.07;;;3.20;99.90;;;;;;4862020;29;20064;-88
2023/01/23 06:03:37;;;;;;;12.82;8.38;;;3.20;99.90;;;;;;4898502;29;20169;-93
2023/01/23 06:10:46;;;;;;;;;;;;;;;;;;;;;
2023/01/23 06:17:12;;;;;;;15.02;8.75;;;3.20;99.90;;;;;;5006556;23;20052;-96
2023/01/23 06:19:40;;;;;;;15.98;9.02;;;3.20;99.90;;;;;;4898731;29;20057;-91
2023/01/23 06:22:20;;;;;;;15.48;9.45;;;3.20;99.90;;;;;;4897075;29;20049;-93
2023/01/23 06:24:52;;;;;;;13.48;8.75;;;3.20;99.90;;;;;;4890399;29;20044;-93
2023/01/23 06:27:23;;;;;;;12.85;8.80;;;3.20;99.90;;;;;;4890208;29;20045;-94
2023/01/23 06:29:49;;;;;;;14.48;8.55;;;3.20;99.90;;;;;;4878085;29;20075;-94
2023/01/23 06:32:17;;;;;;;14.45;8.85;;;3.20;99.90;;;;;;4881765;29;20048;-93
2023/01/23 06:34:43;;;;;;;15.35;9.32;;;3.20;99.90;;;;;;4888321;29;20045;-94
2023/01/23 06:37:38;;;;;;;12.20;8.38;;;3.20;99.90;;;;;;4890100;29;20421;-93
2023/01/23 06:40:11;;;;;;;16.23;8.60;;;3.20;99.90;;;;;;4896907;29;20055;-94
2023/01/23 06:42:41;;;;;;;16.30;8.98;;;3.20;99.90;;;;;;4884092;29;20089;-94
2023/01/23 06:45:10;;;;;;;14.57;8.98;;;3.20;99.90;;;;;;4887758;29;20044;-95
2023/01/23 06:47:53;;;;;;;17.42;9.13;;;3.20;99.90;;;;;;4889424;29;20057;-93
2023/01/23 06:50:18;;;;;;;14.63;9.10;;;3.30;99.90;;;;;;4881880;29;20048;-94
2023/01/23 06:52:50;;;;;;;12.43;8.57;;;3.20;99.90;;;;;;4886444;29;20500;-93
2023/01/23 06:55:20;;;;;;;13.00;8.73;;;3.20;99.90;;;;;;4882082;29;20052;-95
2023/01/23 06:57:51;;;;;;;13.52;9.23;;;3.20;99.90;;;;;;4891612;29;20053;-93
2023/01/23 07:00:26;;;;;;;13.52;9.07;;;3.30;99.90;;;;;;4883356;29;20049;-94
2023/01/23 07:02:52;;;;;;;15.05;8.13;;;3.20;99.90;;;;;;4882028;29;20056;-93
2023/01/23 07:05:21;;;;;;;13.80;8.77;;;3.30;99.90;;;;;;4883089;29;20048;-95
2023/01/23 07:08:00;;;;;;;15.02;10.10;;;3.20;99.90;;;;;;4884152;29;20216;-95
2023/01/23 07:10:31;;;;;;;14.50;8.88;;;3.20;99.90;;;;;;4881844;29;20477;-95
2023/01/23 07:13:11;;;;;;;13.15;9.25;;;3.20;99.90;;;;;;4881548;29;20068;-94
2023/01/23 07:15:40;;;;;;;14.85;9.02;;;3.20;99.90;;;;;;4891330;29;20048;-94
2023/01/23 07:18:05;;;;;;;11.98;8.90;;;3.20;99.90;;;;;;4894692;29;20065;-93
2023/01/23 07:21:05;;;;;;;;;;;;;;;;;;;;;
2023/01/23 07:24:09;;;;;;;14.18;9.25;;;3.20;99.90;;;;;;4880150;29;20057;-94
2023/01/23 07:26:50;;;;;;;13.20;9.00;;;3.20;99.90;;;;;;4883695;29;20053;-95
2023/01/23 07:29:22;;;;;;;16.65;9.00;;;3.20;99.90;;;;;;4880986;29;20053;-95
2023/01/23 07:31:48;;;;;;;15.85;8.77;;;3.20;99.90;;;;;;4891614;29;20052;-95
2023/01/23 07:34:33;;;;;;;12.57;9.00;;;3.20;99.90;;;;;;4911985;23;20051;-96
2023/01/23 07:36:59;;;;;;;15.02;8.82;;;3.20;99.90;;;;;;4884779;29;20059;-96
2023/01/23 07:39:27;;;;;;;14.18;9.13;;;3.20;99.90;;;;;;4900434;29;20049;-96
2023/01/23 07:41:53;;;;;;;15.77;10.52;;;3.20;99.90;;;;;;4899391;29;20548;-95
2023/01/23 07:44:21;;;;;;;15.15;9.82;;;3.30;99.90;;;;;;4884036;29;20080;-96
2023/01/23 07:46:47;;;;;;;14.30;9.38;;;3.30;99.90;;;;;;4884568;29;20052;-96
2023/01/23 07:49:16;;;;;;;15.05;9.30;;;3.20;99.90;;;;;;4888197;29;20493;-95
2023/01/23 07:51:42;;;;;;;12.52;8.80;;;3.30;99.90;;;;;;4882877;29;20055;-94
2023/01/23 07:54:26;;;;;;;12.55;9.45;;;3.20;99.90;;;;;;4885745;29;20139;-96
2023/01/23 07:56:52;;;;;;;13.43;9.30;;;3.30;99.90;;;;;;4900062;29;20049;-95
2023/01/23 07:59:18;;;;;;;14.82;9.30;;;3.30;99.90;;;;;;4870471;29;20053;-93
2023/01/23 08:01:43;;;;;;;13.20;8.65;;;3.20;99.90;;;;;;4890327;29;20136;-96
2023/01/23 08:04:09;;;;;;;14.32;8.98;;;3.20;99.90;;;;;;4884994;29;20052;-96
2023/01/23 08:06:37;;;;;;;15.65;9.60;;;3.20;99.90;;;;;;4873109;29;20044;-90
2023/01/23 08:09:16;;;;;;;16.45;9.80;;;3.20;99.90;;;;;;4890319;29;20040;-94
2023/01/23 08:11:41;;;;;;;13.85;9.15;;;3.20;99.90;;;;;;4907691;23;20060;-94
2023/01/23 08:14:07;;;;;;;13.43;9.00;;;3.20;99.90;;;;;;4900702;29;20081;-90
2023/01/23 08:16:33;;;;;;;14.73;8.60;;;3.20;99.90;;;;;;4899753;29;20051;-94
2023/01/23 08:21:34;;;;;;;13.48;9.00;;;3.20;99.90;;;;;;4888082;23;20053;-95
2023/01/23 08:24:21;;;;;;;14.30;9.43;;;3.20;99.90;;;;;;4881953;29;20553;-94
2023/01/23 08:26:47;;;;;;;18.05;9.52;;;3.20;99.90;;;;;;4865341;29;20041;-94
2023/01/23 08:29:13;;;;;;;14.40;9.25;;;3.30;99.90;;;;;;4881181;29;20056;-93
2023/01/23 08:31:38;;;;;;;12.88;9.07;;;3.20;99.90;;;;;;4881088;29;20045;-93
2023/01/23 08:34:04;;;;;;;18.25;9.18;;;3.20;99.90;;;;;;4880929;29;20087;-92
2023/01/23 08:36:30;;;;;;;16.08;8.70;;;3.20;99.90;;;;;;4864793;29;20044;-94
2023/01/23 08:38:58;;;;;;;13.25;8.65;;;3.20;99.90;;;;;;4863962;29;20037;-92
2023/01/23 08:41:25;;;;;;;17.75;9.35;;;3.30;99.90;;;;;;4864626;29;20089;-94
2023/01/23 08:43:50;;;;;;;14.52;9.25;;;3.20;99.90;;;;;;4841340;29;20049;-95
2023/01/23 08:46:22;;;;;;;12.48;8.73;;;3.20;99.90;;;;;;4857593;29;20406;-94
2023/01/23 08:49:09;;;;;;;14.02;8.80;;;3.30;99.90;;;;;;4860054;29;20397;-92
2023/01/23 08:51:37;;;;;;;13.70;9.27;;;3.20;99.90;;;;;;4864114;29;20511;-94
2023/01/23 08:54:35;;;;;;;17.05;9.35;;;3.20;99.90;;;;;;4857182;29;20059;-94
2023/01/23 08:57:04;;;;;;;14.07;8.93;;;3.30;99.90;;;;;;4846275;29;20171;-94
2023/01/23 08:59:29;;;;;;;13.82;8.82;;;3.30;99.90;;;;;;4861851;29;20053;-94
2023/01/23 09:01:58;;;;;;;15.27;9.23;;;3.30;99.90;;;;;;4859680;29;20049;-94
2023/01/23 09:04:26;;;;;;;14.75;8.55;;;3.30;99.90;;;;;;4878937;29;20041;-95
2023/01/23 09:06:55;;;;;;;12.45;8.32;;;3.20;99.90;;;;;;4884628;23;20045;-94
2023/01/23 09:09:28;;;;;;;13.60;7.45;;;3.30;99.90;;;;;;4880616;29;20037;-94
2023/01/23 09:11:57;;;;;;;12.95;8.73;;;3.30;99.90;;;;;;4822472;29;20062;-95
2023/01/23 09:14:23;;;;;;;12.30;7.97;;;3.30;99.90;;;;;;4826882;29;20049;-94
2023/01/23 09:16:51;;;;;;;13.20;8.50;;;3.30;99.90;;;;;;4843216;29;20054;-93
2023/01/23 09:19:22;;;;;;;11.40;8.20;;;3.30;99.90;;;;;;4825565;29;20550;-94
2023/01/23 09:21:55;;;;;;;12.38;8.00;;;3.30;99.90;;;;;;4827100;29;20128;-95
2023/01/23 09:24:21;;;;;;;11.73;7.75;;;3.40;99.90;;;;;;4827042;29;20045;-93
2023/01/23 09:26:47;;;;;;;11.02;8.30;;;3.30;99.90;;;;;;4842298;29;20403;-94
2023/01/23 09:29:14;;;;;;;10.85;7.55;;;3.30;99.90;;;;;;4841044;29;20042;-93
2023/01/23 09:31:40;;;;;;;12.63;8.25;;;3.40;99.90;;;;;;4838644;29;20086;-93
2023/01/23 09:34:06;;;;;;;12.15;8.10;;;3.40;99.90;;;;;;4830125;29;20120;-93
2023/01/23 09:36:35;;;;;;;11.98;7.53;;;3.40;99.90;;;;;;4842632;29;20073;-93
2023/01/23 09:39:08;;;;;;;12.75;7.82;;;3.40;99.90;;;;;;4829441;29;20145;-93
2023/01/23 09:41:38;;;;;;;13.63;8.07;;;3.40;99.90;;;;;;4827328;29;20050;-94
2023/01/23 09:48:08;;;;;;;11.80;7.20;;;3.40;99.90;;;;;;4843221;29;20057;-94
2023/01/23 09:54:52;;;;;;;11.27;7.38;;;3.50;99.90;;;;;;4880831;29;20052;-94
2023/01/23 09:57:34;;;;;;;11.20;7.22;;;3.40;99.90;;;;;;4865897;29;20446;-93
2023/01/23 10:01:13;;;;;;;11.48;7.03;;;3.40;99.90;;;;;;4910771;23;20023;-92
2023/01/23 10:04:20;;;;;;;12.40;7.35;;;3.40;99.90;;;;;;4843480;29;20062;-96
2023/01/23 10:07:26;;;;;;;9.52;7.22;;;3.40;99.90;;;;;;4845814;29;20091;-96
2023/01/23 10:10:39;;;;;;;13.35;7.38;;;3.40;99.90;;;;;;5020437;23;20053;-96
2023/01/23 10:20:29;;;;;;;10.27;6.90;;;3.50;99.90;;;;;;4843352;29;20490;-96
2023/01/23 10:30:04;;;;;;;13.70;7.70;;;3.50;99.90;;;;;;4866971;29;20141;-93
2023/01/23 10:32:57;;;;;;;10.02;6.70;;;3.50;99.90;;;;;;4866492;29;20500;-95
2023/01/23 10:39:39;;;;;;;12.07;6.72;;;3.60;99.90;;;;;;4867022;29;20481;-95
2023/01/23 10:42:12;;;;;;;11.07;6.68;;;3.60;99.90;;;;;;4897254;23;20140;-95
2023/01/23 10:44:58;;;;;;;13.60;7.13;;;3.60;99.90;;;;;;4886284;29;20083;-95
2023/01/23 10:47:47;;;;;;;11.55;6.45;;;3.60;99.90;;;;;;4879577;29;20060;-96
2023/01/23 11:05:59;;;;;;;9.38;6.78;;;3.70;99.90;;;;;;4895473;23;20132;-93
2023/01/23 11:08:59;;;;;;;9.75;6.72;;;3.70;99.90;;;;;;4857157;23;20057;-93
2023/01/23 11:11:40;;;;;;;;;;;;;;;;;;;;;
2023/01/23 11:14:23;;;;;;;10.63;6.30;;;3.80;99.90;;;;;;4808705;29;20071;-92
2023/01/23 11:17:31;;;;;;;10.27;6.30;;;3.80;99.90;;;;;;4854310;29;20117;-91
2023/01/23 11:19:58;;;;;;;9.40;6.20;;;3.80;99.90;;;;;;4862995;29;20052;-90
2023/01/23 11:22:38;;;;;;;11.25;6.55;;;3.80;99.90;;;;;;4845849;29;20080;-93
2023/01/23 11:25:28;;;;;;;10.45;6.75;;;3.80;99.90;;;;;;4873318;23;20065;-93
2023/01/23 11:29:00;;;;;;;10.65;6.75;;;3.80;99.90;;;;;;4846155;29;20121;-90
2023/01/23 11:37:41;;;;;;;9.75;6.70;;;3.90;99.90;;;;;;5889040;23;20394;-90
2023/01/23 11:40:19;;;;;;;9.73;7.00;;;3.90;99.90;;;;;;4867015;29;20053;-88
2023/01/23 11:42:50;;;;;;;10.63;6.68;;;3.90;99.90;;;;;;4861102;29;20049;-88
2023/01/23 11:45:53;;;;;;;9.73;6.20;;;3.90;99.90;;;;;;4858139;29;20048;-87
2023/01/23 11:48:31;;;;;;;10.07;6.53;;;3.90;99.90;;;;;;4838033;29;20132;-89
2023/01/23 11:51:19;;;;;;;9.38;7.05;;;4.00;99.90;;;;;;4859432;29;20052;-88
2023/01/23 11:54:05;;;;;;;9.98;6.45;;;4.00;99.90;;;;;;4843093;29;20045;-88
2023/01/23 11:56:54;;;;;;;9.63;6.45;;;4.00;99.90;;;;;;4854170;29;20045;-89
2023/01/23 11:59:42;;;;;;;13.52;6.57;;;4.00;99.90;;;;;;4861691;29;20045;-87
2023/01/23 12:02:25;;;;;;;8.98;6.10;;;4.00;99.90;;;;;;4858749;29;20042;-87
2023/01/23 12:18:10;;;;;;;13.00;7.30;;;4.10;99.90;;;;;;5158431;23;20663;-93
2023/01/23 12:40:23;;;;;;;10.15;6.93;;;4.10;99.90;;;;;;4833879;23;20061;-95
2023/01/23 12:43:24;;;;;;;10.45;6.63;;;4.10;99.90;;;;;;4790393;29;20415;-93
2023/01/23 12:46:17;;;;;;;9.40;6.22;;;4.10;99.90;;;;;;4826522;24;20533;-93
2023/01/23 12:49:07;;;;;;;10.57;6.97;;;4.10;99.90;;;;;;4806585;29;20567;-93
2023/01/23 12:51:37;;;;;;;11.55;7.53;;;4.20;99.90;;;;;;4824103;29;20061;-91
2023/01/23 12:54:09;;;;;;;13.10;7.82;;;4.20;99.90;;;;;;4835598;29;20052;-93
2023/01/23 12:56:38;;;;;;;9.38;6.40;;;4.20;99.90;;;;;;4827731;29;20071;-92
2023/01/23 12:59:42;;;;;;;11.35;7.05;;;4.20;99.90;;;;;;4842544;29;20107;-91
2023/01/23 13:02:34;;;;;;;9.73;7.35;;;4.20;99.90;;;;;;4826716;29;20050;-93
2023/01/23 13:05:10;;;;;;;12.18;7.75;;;4.20;99.90;;;;;;4826458;29;20034;-92
2023/01/23 13:12:01;;;;;;;11.77;7.47;;;4.20;99.90;;;;;;4773185;30;20056;-92
2023/01/23 13:14:30;;;;;;;11.15;7.90;;;4.20;99.90;;;;;;4808842;24;20070;-94
2023/01/23 13:22:52;;;;;;;11.38;8.88;;;4.20;99.90;;;;;;4815040;29;20061;-92
2023/01/23 13:25:23;;;;;;;11.90;8.07;;;4.30;99.90;;;;;;4806393;29;20484;-89
2023/01/23 13:34:26;;;;;;;11.50;7.72;;;4.20;99.90;;;;;;5650958;23;20590;-92
2023/01/23 13:36:53;;;;;;;11.30;7.70;;;4.30;99.90;;;;;;4749908;30;20060;-89
2023/01/23 13:39:25;;;;;;;12.43;8.50;;;4.30;99.90;;;;;;4749752;30;20063;-89
2023/01/23 13:42:17;;;;;;;11.55;8.57;;;4.30;99.90;;;;;;4776596;29;20054;-90
2023/01/23 13:45:17;;;;;;;16.90;9.98;;;4.30;99.90;;;;;;4807896;29;20054;-90
2023/01/23 13:51:21;;;;;;;11.35;8.55;;;4.30;99.90;;;;;;4822974;29;20056;-89
2023/01/23 13:57:06;;;;;;;13.35;9.55;;;4.30;99.90;;;;;;4816975;23;20488;-90
2023/01/23 13:59:46;;;;;;;10.57;7.80;;;4.30;99.90;;;;;;4846185;29;20046;-90
2023/01/23 14:05:38;;;;;;;12.73;9.70;;;4.30;99.90;;;;;;4845472;29;20096;-90
2023/01/23 14:08:21;;;;;;;14.07;9.97;;;4.30;99.90;;;;;;4830001;29;20406;-90
2023/01/23 14:10:48;;;;;;;11.32;8.57;;;4.30;99.90;;;;;;4845202;29;20299;-90
2023/01/23 14:13:21;;;;;;;13.73;9.30;;;4.40;99.90;;;;;;4845643;29;20046;-90
2023/01/23 14:16:09;;;;;;;14.67;9.93;;;4.40;99.90;;;;;;4845590;29;20506;-90
2023/01/23 14:18:43;;;;;;;15.57;9.50;;;4.30;99.90;;;;;;4845564;29;20052;-90
2023/01/23 14:21:35;;;;;;;14.45;9.30;;;4.30;99.90;;;;;;4828740;29;20046;-90
2023/01/23 14:24:23;;;;;;;16.15;10.27;;;4.40;99.90;;;;;;4838811;29;20129;-90
2023/01/23 14:27:15;;;;;;;13.95;9.82;;;4.40;99.90;;;;;;4829355;29;20053;-90
2023/01/23 14:29:58;;;;;;;13.05;9.25;;;4.40;99.90;;;;;;4828854;29;20054;-89
2023/01/23 14:32:25;;;;;;;;;;;4.40;99.90;;;;;;4828785;29;20133;-91
2023/01/23 14:34:50;;;;;;;13.75;9.48;;;4.40;99.90;;;;;;4845421;29;19981;-90
2023/01/23 14:37:34;;;;;;;11.63;9.73;;;4.40;99.90;;;;;;4844411;29;20046;-90
2023/01/23 14:40:00;;;;;;;16.08;9.25;;;4.40;99.90;;;;;;4845535;29;20133;-90
2023/01/23 14:42:30;;;;;;;15.15;10.40;;;4.40;99.90;;;;;;4828434;29;20164;-91
2023/01/23 14:45:08;;;;;;;14.25;9.95;;;4.40;99.90;;;;;;4844523;29;20085;-89
2023/01/23 14:47:42;;;;;;;13.23;9.90;;;4.40;99.90;;;;;;4845339;29;20085;-90
2023/01/23 14:50:25;;;;;;;15.15;10.65;;;4.50;99.90;;;;;;4840754;29;20170;-90
2023/01/23 14:53:03;;;;;;;15.00;9.43;;;4.40;99.90;;;;;;4828340;29;20473;-90
2023/01/23 14:55:39;;;;;;;14.05;10.23;;;4.40;99.90;;;;;;4845008;29;20078;-90
2023/01/23 14:58:23;;;;;;;40.25;23.45;;;4.50;99.90;;;;;;4827944;29;20057;-90
2023/01/23 15:00:53;;;;;;;16.85;11.27;;;4.40;99.90;;;;;;4828257;29;20054;-90
2023/01/23 15:04:15;;;;;;;18.05;10.77;;;4.50;99.90;;;;;;4828261;29;20475;-90
2023/01/23 15:06:41;;;;;;;15.73;10.82;;;4.40;99.90;;;;;;4790122;29;20070;-90
2023/01/23 15:09:35;;;;;;;17.63;10.93;;;4.40;99.90;;;;;;4844181;29;20042;-89
2023/01/23 15:12:27;;;;;;;15.25;10.70;;;4.40;99.90;;;;;;4844853;29;20058;-90
2023/01/23 15:14:59;;;;;;;13.40;10.70;;;4.40;99.90;;;;;;4844868;29;20049;-90
2023/01/23 15:17:24;;;;;;;15.27;11.10;;;4.40;99.90;;;;;;4844654;29;20141;-90
2023/01/23 15:19:54;;;;;;;15.43;10.68;;;4.40;99.90;;;;;;4843895;29;20124;-90
2023/01/23 15:22:25;;;;;;;16.70;11.10;;;4.40;99.90;;;;;;4843964;29;20084;-90
2023/01/23 15:24:54;;;;;;;14.15;10.35;;;4.40;99.90;;;;;;4828340;29;20407;-91
2023/01/23 15:27:48;;;;;;;17.90;10.82;;;4.40;99.90;;;;;;4843875;29;20160;-90
2023/01/23 15:30:49;;;;;;;;;;;4.40;99.90;;;;;;4795753;29;20491;-90